createdAt,value
2022-11-13T00:01:18.476Z,10.10
2022-11-13T00:03:45.802Z,10.10
2022-11-13T00:06:13.960Z,10.65
2022-11-13T00:08:45.002Z,9.73
2022-11-13T00:11:15.006Z,9.60
2022-11-13T00:13:43.173Z,9.40
2022-11-13T00:16:16.279Z,9.15
2022-11-13T00:18:43.473Z,9.45
2022-11-13T00:21:17.668Z,8.38
2022-11-13T00:23:44.937Z,10.32
2022-11-13T00:26:13.159Z,9.88
2022-11-13T00:28:40.020Z,9.45
2022-11-13T00:31:08.573Z,9.90
2022-11-13T00:36:26.432Z,9.75
2022-11-13T00:38:54.265Z,10.73
2022-11-13T00:41:21.543Z,9.60
2022-11-13T00:43:48.594Z,10.13
2022-11-13T00:46:15.388Z,10.57
2022-11-13T00:48:42.206Z,10.13
2022-11-13T00:51:09.324Z,10.43
2022-11-13T00:53:36.239Z,9.85
2022-11-13T00:56:03.292Z,9.05
2022-11-13T00:58:30.552Z,11.40
2022-11-13T01:01:07.680Z,9.60
2022-11-13T01:03:34.870Z,10.13
2022-11-13T01:06:01.712Z,11.23
2022-11-13T01:08:28.798Z,11.15
2022-11-13T01:10:55.893Z,9.30
2022-11-13T01:13:22.738Z,10.25
2022-11-13T01:15:49.523Z,9.23
2022-11-13T01:18:16.393Z,9.60
2022-11-13T01:20:43.187Z,10.18
2022-11-13T01:23:10.066Z,12.30
2022-11-13T01:25:36.940Z,11.30
2022-11-13T01:28:03.970Z,10.18
2022-11-13T01:30:30.769Z,10.68
2022-11-13T01:32:57.578Z,10.98
2022-11-13T01:35:24.451Z,11.43
2022-11-13T01:37:51.239Z,11.98
2022-11-13T01:40:18.169Z,10.65
2022-11-13T01:42:44.974Z,11.45
2022-11-13T01:45:49.379Z,13.38
2022-11-13T01:48:16.236Z,12.05
2022-11-13T01:50:43.121Z,11.25
2022-11-13T01:53:10.069Z,10.38
2022-11-13T01:55:37.011Z,10.77
2022-11-13T01:58:06.117Z,11.57
2022-11-13T02:00:33.056Z,12.10
2022-11-13T02:02:59.908Z,11.98
2022-11-13T02:05:26.751Z,10.07
2022-11-13T02:07:53.752Z,11.02
2022-11-13T02:10:20.691Z,11.07
2022-11-13T02:12:51.206Z,10.90
2022-11-13T02:15:23.521Z,11.65
2022-11-13T02:17:59.154Z,12.55
2022-11-13T02:20:35.535Z,11.27
2022-11-13T02:23:17.824Z,10.82
2022-11-13T02:25:47.954Z,11.45
2022-11-13T02:28:14.986Z,11.50
2022-11-13T02:30:42.043Z,11.60
2022-11-13T02:33:38.312Z,11.20
2022-11-13T02:36:05.962Z,10.82
2022-11-13T02:38:34.798Z,12.93
2022-11-13T02:41:01.607Z,10.55
2022-11-13T02:43:28.490Z,12.30
2022-11-13T02:45:55.350Z,12.18
2022-11-13T02:48:22.197Z,12.30
2022-11-13T02:50:49.195Z,10.65
2022-11-13T02:53:16.125Z,11.43
2022-11-13T02:55:42.909Z,12.43
2022-11-13T02:58:09.696Z,10.95
2022-11-13T03:00:36.498Z,10.40
2022-11-13T03:03:03.515Z,11.52
2022-11-13T03:05:30.321Z,11.02
2022-11-13T03:07:57.192Z,10.68
2022-11-13T03:10:23.995Z,10.38
2022-11-13T03:12:50.805Z,11.20
2022-11-13T03:15:17.687Z,9.85
2022-11-13T03:17:44.513Z,10.25
2022-11-13T03:20:11.325Z,10.23
2022-11-13T03:22:38.128Z,10.75
2022-11-13T03:25:10.253Z,10.55
2022-11-13T03:27:37.993Z,10.00
2022-11-13T03:30:05.771Z,10.45
2022-11-13T03:32:32.598Z,9.00
2022-11-13T03:34:59.413Z,10.13
2022-11-13T03:37:26.217Z,10.80
2022-11-13T03:39:52.984Z,10.13
2022-11-13T03:42:20.033Z,9.77
2022-11-13T03:44:46.904Z,11.02
2022-11-13T03:47:15.220Z,10.90
2022-11-13T03:49:42.057Z,11.52
2022-11-13T03:52:08.850Z,10.48
2022-11-13T03:54:35.713Z,9.82
2022-11-13T03:57:02.497Z,11.02
2022-11-13T03:59:29.332Z,10.05
2022-11-13T04:01:56.550Z,10.35
2022-11-13T04:04:23.401Z,12.27
2022-11-13T04:06:50.231Z,11.52
2022-11-13T04:09:17.211Z,11.18
2022-11-13T04:11:44.007Z,11.73
2022-11-13T04:14:10.827Z,11.02
2022-11-13T04:16:37.589Z,10.02
2022-11-13T04:19:04.513Z,10.43
2022-11-13T04:21:31.323Z,12.32
2022-11-13T04:23:58.136Z,11.10
2022-11-13T04:26:24.936Z,11.90
2022-11-13T04:28:51.755Z,11.75
2022-11-13T04:31:18.550Z,11.25
2022-11-13T04:33:45.351Z,12.02
2022-11-13T04:36:12.214Z,10.02
2022-11-13T04:38:39.052Z,10.15
2022-11-13T04:41:24.384Z,10.63
2022-11-13T04:43:51.222Z,10.10
2022-11-13T04:46:17.993Z,9.95
2022-11-13T04:48:44.804Z,10.38
2022-11-13T04:51:12.344Z,10.40
2022-11-13T04:53:39.179Z,8.98
2022-11-13T04:56:06.150Z,9.73
2022-11-13T04:58:33.017Z,9.75
2022-11-13T05:00:59.818Z,10.38
2022-11-13T05:03:26.729Z,9.38
2022-11-13T05:05:53.543Z,9.48
2022-11-13T05:08:20.341Z,8.32
2022-11-13T05:10:47.111Z,8.00
2022-11-13T05:13:13.921Z,8.70
2022-11-13T05:15:40.684Z,8.10
2022-11-13T05:18:07.500Z,9.48
2022-11-13T05:20:34.321Z,9.18
2022-11-13T05:23:01.158Z,9.95
2022-11-13T05:25:28.011Z,8.88
2022-11-13T05:27:57.110Z,8.60
2022-11-13T05:30:24.345Z,8.93
2022-11-13T05:32:52.529Z,8.68
2022-11-13T05:35:19.370Z,8.05
2022-11-13T05:37:46.140Z,9.25
2022-11-13T05:40:13.085Z,8.57
2022-11-13T05:42:39.851Z,9.98
2022-11-13T05:45:07.418Z,9.60
2022-11-13T05:47:34.252Z,8.90
2022-11-13T05:50:01.082Z,8.98
2022-11-13T05:52:28.038Z,8.95
2022-11-13T05:54:54.919Z,9.23
2022-11-13T05:57:21.699Z,8.98
2022-11-13T05:59:48.498Z,10.05
2022-11-13T06:02:15.306Z,8.90
2022-11-13T06:04:42.169Z,10.93
2022-11-13T06:07:08.982Z,7.72
2022-11-13T06:09:35.882Z,9.13
2022-11-13T06:12:02.715Z,8.32
2022-11-13T06:14:29.532Z,8.27
2022-11-13T06:16:56.317Z,8.32
2022-11-13T06:19:23.733Z,7.97
2022-11-13T06:21:50.497Z,8.52
2022-11-13T06:24:17.305Z,8.38
2022-11-13T06:26:44.109Z,8.40
2022-11-13T06:29:12.950Z,7.72
2022-11-13T06:31:40.137Z,8.63
2022-11-13T06:34:07.183Z,9.10
2022-11-13T06:36:36.324Z,8.55
2022-11-13T06:39:07.687Z,7.78
2022-11-13T06:41:34.919Z,6.68
2022-11-13T06:44:03.381Z,8.73
2022-11-13T06:46:31.007Z,8.65
2022-11-13T06:48:58.984Z,9.27
2022-11-13T06:51:29.111Z,8.88
2022-11-13T06:53:57.061Z,8.35
2022-11-13T06:56:24.542Z,9.93
2022-11-13T06:58:51.382Z,10.95
2022-11-13T07:01:20.756Z,10.88
2022-11-13T07:03:47.979Z,10.07
2022-11-13T07:06:25.093Z,9.48
2022-11-13T07:08:52.531Z,10.57
2022-11-13T07:11:22.073Z,11.15
2022-11-13T07:13:49.508Z,12.57
2022-11-13T07:16:18.146Z,12.38
2022-11-13T07:18:53.288Z,11.85
2022-11-13T07:21:21.260Z,12.40
2022-11-13T07:23:49.621Z,13.32
2022-11-13T07:26:16.956Z,13.68
2022-11-13T07:28:43.804Z,15.00
2022-11-13T07:31:12.409Z,15.35
2022-11-13T07:33:39.273Z,13.77
2022-11-13T07:36:06.707Z,14.93
2022-11-13T07:38:33.619Z,13.23
2022-11-13T07:41:01.107Z,16.75
2022-11-13T07:43:28.393Z,15.23
2022-11-13T07:45:57.895Z,14.50
2022-11-13T07:48:27.155Z,15.23
2022-11-13T07:50:54.661Z,16.25
2022-11-13T07:53:22.492Z,15.98
2022-11-13T07:55:49.281Z,15.93
2022-11-13T07:58:16.125Z,16.02
2022-11-13T08:00:42.985Z,15.40
2022-11-13T08:03:13.632Z,14.77
2022-11-13T08:05:41.000Z,16.58
2022-11-13T08:08:08.718Z,14.15
2022-11-13T08:10:36.630Z,15.52
2022-11-13T08:13:10.935Z,14.75
2022-11-13T08:15:38.332Z,13.90
2022-11-13T08:18:05.902Z,12.82
2022-11-13T08:20:33.727Z,14.05
2022-11-13T08:23:03.122Z,13.05
2022-11-13T08:25:31.108Z,14.38
2022-11-13T08:27:58.373Z,16.23
2022-11-13T08:30:27.273Z,14.68
2022-11-13T08:32:54.519Z,14.13
2022-11-13T08:35:25.359Z,14.75
2022-11-13T08:37:56.106Z,15.30
2022-11-13T08:40:22.896Z,13.95
2022-11-13T08:42:50.065Z,15.43
2022-11-13T08:45:17.097Z,13.00
2022-11-13T08:47:43.863Z,13.93
2022-11-13T08:50:10.759Z,14.18
2022-11-13T08:52:37.523Z,13.68
2022-11-13T08:55:04.798Z,13.75
2022-11-13T08:57:31.600Z,13.52
2022-11-13T08:59:58.449Z,12.68
2022-11-13T09:02:25.289Z,13.63
2022-11-13T09:04:52.173Z,13.25
2022-11-13T09:07:22.141Z,13.65
2022-11-13T09:09:52.957Z,15.05
2022-11-13T09:12:19.757Z,14.90
2022-11-13T09:14:46.568Z,15.63
2022-11-13T09:17:13.420Z,15.30
2022-11-13T09:19:40.403Z,18.08
2022-11-13T09:22:07.199Z,14.18
2022-11-13T09:24:34.020Z,12.70
2022-11-13T09:27:01.175Z,14.40
2022-11-13T09:29:28.697Z,13.45
2022-11-13T09:31:56.171Z,12.77
2022-11-13T09:34:25.768Z,12.38
2022-11-13T09:36:52.647Z,12.10
2022-11-13T09:39:19.486Z,11.70
2022-11-13T09:42:23.835Z,12.00
2022-11-13T09:45:07.297Z,12.98
2022-11-13T09:47:39.917Z,11.88
2022-11-13T09:50:19.259Z,11.02
2022-11-13T09:52:46.675Z,9.63
2022-11-13T09:55:19.460Z,10.65
2022-11-13T09:57:49.392Z,9.63
2022-11-13T10:00:21.466Z,9.90
2022-11-13T10:05:46.727Z,10.40
2022-11-13T10:08:16.856Z,9.98
2022-11-13T10:10:55.585Z,10.90
2022-11-13T10:13:31.156Z,10.50
2022-11-13T10:16:21.323Z,10.85
2022-11-13T10:18:50.753Z,9.95
2022-11-13T10:21:25.443Z,10.30
2022-11-13T10:23:56.516Z,10.35
2022-11-13T10:26:27.136Z,10.30
2022-11-13T10:29:06.296Z,10.45
2022-11-13T10:31:50.152Z,10.40
2022-11-13T10:34:18.621Z,11.52
2022-11-13T10:37:11.035Z,11.85
2022-11-13T10:42:37.292Z,11.55
2022-11-13T10:45:09.508Z,11.27
2022-11-13T10:48:03.812Z,11.75
2022-11-13T10:50:33.094Z,11.55
2022-11-13T10:52:59.970Z,11.15
2022-11-13T10:55:39.529Z,11.13
2022-11-13T10:58:17.727Z,11.35
2022-11-13T11:00:49.180Z,11.32
2022-11-13T11:03:19.199Z,12.13
2022-11-13T11:06:03.737Z,11.73
2022-11-13T11:08:35.602Z,12.25
2022-11-13T11:11:32.946Z,12.93
2022-11-13T11:14:17.905Z,10.32
2022-11-13T11:16:46.480Z,11.85
2022-11-13T11:19:15.609Z,11.75
2022-11-13T11:21:44.488Z,11.98
2022-11-13T11:24:23.671Z,12.27
2022-11-13T11:26:57.341Z,11.15
2022-11-13T11:30:00.579Z,10.55
2022-11-13T11:32:49.400Z,10.55
2022-11-13T11:35:22.297Z,11.95
2022-11-13T11:38:01.209Z,11.73
2022-11-13T11:40:38.258Z,10.77
2022-11-13T11:43:40.358Z,10.13
2022-11-13T11:46:12.359Z,10.82
2022-11-13T11:48:40.501Z,9.43
2022-11-13T11:51:25.490Z,10.13
2022-11-13T11:54:23.452Z,9.77
2022-11-13T11:57:03.532Z,9.30
2022-11-13T11:59:33.396Z,9.90
2022-11-13T12:02:06.360Z,9.82
2022-11-13T12:04:38.998Z,8.77
2022-11-13T12:07:42.261Z,8.90
2022-11-13T12:10:27.310Z,9.20
2022-11-13T12:13:13.056Z,9.77
2022-11-13T12:16:01.016Z,9.73
2022-11-13T12:18:39.789Z,9.98
2022-11-13T12:21:28.606Z,9.02
2022-11-13T12:24:20.291Z,10.00
2022-11-13T12:27:10.514Z,9.20
2022-11-13T12:30:03.836Z,9.27
2022-11-13T12:33:08.568Z,9.63
2022-11-13T12:35:37.025Z,8.60
2022-11-13T12:39:01.287Z,8.63
2022-11-13T12:41:36.043Z,9.57
2022-11-13T12:44:28.826Z,9.35
2022-11-13T12:46:57.687Z,9.18
2022-11-13T12:49:24.978Z,10.80
2022-11-13T12:52:16.647Z,8.98
2022-11-13T12:54:43.828Z,9.40
2022-11-13T12:57:13.665Z,9.63
2022-11-13T12:59:53.476Z,8.38
2022-11-13T13:02:57.815Z,10.02
2022-11-13T13:05:53.356Z,10.10
2022-11-13T13:08:32.108Z,9.70
2022-11-13T13:11:17.764Z,8.77
2022-11-13T13:13:47.383Z,8.82
2022-11-13T13:16:27.395Z,8.52
2022-11-13T13:19:05.527Z,8.65
2022-11-13T13:21:42.505Z,9.32
2022-11-13T13:24:27.484Z,10.18
2022-11-13T13:26:54.349Z,10.13
2022-11-13T13:29:26.487Z,10.05
2022-11-13T13:34:55.420Z,8.88
2022-11-13T13:37:57.312Z,9.10
2022-11-13T13:40:56.487Z,9.43
2022-11-13T13:43:46.554Z,8.68
2022-11-13T13:46:22.280Z,8.57
2022-11-13T13:48:50.885Z,9.20
2022-11-13T13:51:20.428Z,9.18
2022-11-13T13:53:49.209Z,9.30
2022-11-13T13:56:16.874Z,8.52
2022-11-13T13:58:43.818Z,9.65
2022-11-13T14:01:25.605Z,9.23
2022-11-13T14:04:17.772Z,9.13
2022-11-13T14:06:59.555Z,8.88
2022-11-13T14:09:28.814Z,8.77
2022-11-13T14:12:09.265Z,8.80
2022-11-13T14:14:39.215Z,8.02
2022-11-13T14:17:07.051Z,9.15
2022-11-13T14:19:33.941Z,9.70
2022-11-13T14:22:03.700Z,11.88
2022-11-13T14:24:53.991Z,11.27
2022-11-13T14:27:26.330Z,12.52
2022-11-13T14:29:57.067Z,13.85
2022-11-13T14:32:33.927Z,15.80
2022-11-13T14:35:03.220Z,13.27
2022-11-13T14:37:37.407Z,11.63
2022-11-13T14:40:21.550Z,12.68
2022-11-13T14:42:58.881Z,12.57
2022-11-13T14:45:28.753Z,12.98
2022-11-13T14:47:59.531Z,13.10
2022-11-13T14:50:37.202Z,13.73
2022-11-13T14:53:10.244Z,13.98
2022-11-13T14:55:50.323Z,13.63
2022-11-13T14:58:31.078Z,13.93
2022-11-13T15:00:59.625Z,15.43
2022-11-13T15:03:27.911Z,13.10
2022-11-13T15:05:55.136Z,13.82
2022-11-13T15:08:22.147Z,14.40
2022-11-13T15:10:49.131Z,13.52
2022-11-13T15:13:17.907Z,14.68
2022-11-13T15:15:45.064Z,15.10
2022-11-13T15:18:19.842Z,14.40
2022-11-13T15:20:46.681Z,15.50
2022-11-13T15:23:15.562Z,14.57
2022-11-13T15:25:43.481Z,14.32
2022-11-13T15:28:10.343Z,13.95
2022-11-13T15:30:37.220Z,15.27
2022-11-13T15:33:12.337Z,14.13
2022-11-13T15:35:40.305Z,16.08
2022-11-13T15:38:07.118Z,15.95
2022-11-13T15:40:33.916Z,15.95
2022-11-13T15:43:01.874Z,14.23
2022-11-13T15:45:28.683Z,14.68
2022-11-13T15:47:55.540Z,15.63
2022-11-13T15:50:22.878Z,16.83
2022-11-13T15:52:52.360Z,15.80
2022-11-13T15:55:31.294Z,15.77
2022-11-13T15:57:59.219Z,16.30
2022-11-13T16:00:28.411Z,15.55
2022-11-13T16:02:57.438Z,16.10
2022-11-13T16:05:25.970Z,15.80
2022-11-13T16:07:54.225Z,17.08
2022-11-13T16:10:27.385Z,15.70
2022-11-13T16:12:54.379Z,18.63
2022-11-13T16:15:21.654Z,19.67
2022-11-13T16:17:54.600Z,20.35
2022-11-13T16:20:21.478Z,15.85
2022-11-13T16:22:48.350Z,17.48
2022-11-13T16:25:18.544Z,18.15
2022-11-13T16:27:45.872Z,18.63
2022-11-13T16:30:20.049Z,19.75
2022-11-13T16:32:47.555Z,20.15
2022-11-13T16:35:16.633Z,18.83
2022-11-13T16:37:43.522Z,18.80
2022-11-13T16:40:30.811Z,15.93
2022-11-13T16:42:57.842Z,18.85
2022-11-13T16:45:24.643Z,19.27
2022-11-13T16:47:51.526Z,17.13
2022-11-13T16:50:23.728Z,17.90
2022-11-13T16:52:51.173Z,20.80
2022-11-13T16:55:17.967Z,18.85
2022-11-13T16:57:44.817Z,19.17
2022-11-13T17:00:15.267Z,15.77
2022-11-13T17:02:43.031Z,15.57
2022-11-13T17:05:17.562Z,15.13
2022-11-13T17:07:44.446Z,15.23
2022-11-13T17:13:00.907Z,15.93
2022-11-13T17:15:27.882Z,16.23
2022-11-13T17:17:58.357Z,17.35
2022-11-13T17:20:25.472Z,16.10
2022-11-13T17:22:52.439Z,15.38
2022-11-13T17:25:20.609Z,15.18
2022-11-13T17:27:47.569Z,15.07
2022-11-13T17:30:14.736Z,15.00
2022-11-13T17:32:41.646Z,15.95
2022-11-13T17:35:11.518Z,17.88
2022-11-13T17:37:38.924Z,18.30
2022-11-13T17:40:06.394Z,19.10
2022-11-13T17:42:33.347Z,17.42
2022-11-13T17:45:00.185Z,18.38
2022-11-13T17:47:27.012Z,17.40
2022-11-13T17:49:53.787Z,18.92
2022-11-13T17:52:20.644Z,18.13
2022-11-13T17:54:47.433Z,17.95
2022-11-13T17:57:14.528Z,29.40
2022-11-13T17:59:41.424Z,21.58
2022-11-13T18:02:11.405Z,19.30
2022-11-13T18:04:38.147Z,17.92
2022-11-13T18:07:04.995Z,16.98
2022-11-13T18:09:31.881Z,17.77
2022-11-13T18:11:58.667Z,17.73
2022-11-13T18:14:25.423Z,17.10
2022-11-13T18:16:52.248Z,15.65
2022-11-13T18:19:19.139Z,16.20
2022-11-13T18:21:45.933Z,16.48
2022-11-13T18:24:15.709Z,18.42
2022-11-13T18:26:42.600Z,23.35
2022-11-13T18:29:09.692Z,17.58
2022-11-13T18:31:37.329Z,15.65
2022-11-13T18:34:06.219Z,18.30
2022-11-13T18:36:34.729Z,16.63
2022-11-13T18:39:03.302Z,15.45
2022-11-13T18:41:30.661Z,15.95
2022-11-13T18:43:57.531Z,15.88
2022-11-13T18:46:24.588Z,16.45
2022-11-13T18:48:51.803Z,15.85
2022-11-13T18:51:21.521Z,16.05
2022-11-13T18:53:49.705Z,15.73
2022-11-13T18:56:22.145Z,20.25
2022-11-13T18:58:52.317Z,21.85
2022-11-13T19:01:23.207Z,20.15
2022-11-13T19:04:16.201Z,22.02
2022-11-13T19:06:38.794Z,22.88
2022-11-13T19:09:12.423Z,20.10
2022-11-13T19:11:39.938Z,18.17
2022-11-13T19:14:07.673Z,17.42
2022-11-13T19:16:38.045Z,16.75
2022-11-13T19:19:20.228Z,17.83
2022-11-13T19:21:47.537Z,16.73
2022-11-13T19:24:15.048Z,17.50
2022-11-13T19:26:42.739Z,17.92
2022-11-13T19:29:09.864Z,18.52
2022-11-13T19:31:36.715Z,18.05
2022-11-13T19:34:07.361Z,18.88
2022-11-13T19:36:35.902Z,20.23
2022-11-13T19:39:03.880Z,19.17
2022-11-13T19:41:30.708Z,20.58
2022-11-13T19:43:59.775Z,19.35
2022-11-13T19:46:26.973Z,20.98
2022-11-13T19:48:53.840Z,20.67
2022-11-13T19:51:23.623Z,19.58
2022-11-13T19:53:58.791Z,21.00
2022-11-13T19:56:28.269Z,21.25
2022-11-13T19:58:55.595Z,21.85
2022-11-13T20:01:27.699Z,20.90
2022-11-13T20:06:31.661Z,21.08
2022-11-13T20:08:59.676Z,22.13
2022-11-13T20:11:26.517Z,21.73
2022-11-13T20:13:53.703Z,22.52
2022-11-13T20:16:22.047Z,21.13
2022-11-13T20:18:49.559Z,22.23
2022-11-13T20:21:24.295Z,22.02
2022-11-13T20:23:52.527Z,19.75
2022-11-13T20:26:19.421Z,20.90
2022-11-13T20:28:46.259Z,20.77
2022-11-13T20:31:22.378Z,23.02
2022-11-13T20:33:54.914Z,22.20
2022-11-13T20:36:22.550Z,21.23
2022-11-13T20:38:53.648Z,21.95
2022-11-13T20:41:21.141Z,21.65
2022-11-13T20:43:48.568Z,23.25
2022-11-13T20:46:17.568Z,20.67
2022-11-13T20:48:48.077Z,20.85
2022-11-13T20:51:14.871Z,21.05
2022-11-13T20:53:42.628Z,22.83
2022-11-13T20:56:10.138Z,21.00
2022-11-13T20:58:37.064Z,21.02
2022-11-13T21:01:11.390Z,20.40
2022-11-13T21:03:41.344Z,20.25
2022-11-13T21:06:10.558Z,21.58
2022-11-13T21:08:38.158Z,20.10
2022-11-13T21:11:06.386Z,20.27
2022-11-13T21:13:34.102Z,19.23
2022-11-13T21:16:06.021Z,20.58
2022-11-13T21:18:32.909Z,20.48
2022-11-13T21:21:12.887Z,19.80
2022-11-13T21:23:40.196Z,18.17
2022-11-13T21:26:08.424Z,18.00
2022-11-13T21:28:36.356Z,17.33
2022-11-13T21:31:13.121Z,16.60
2022-11-13T21:33:41.778Z,17.75
2022-11-13T21:36:20.035Z,18.27
2022-11-13T21:38:49.951Z,17.80
2022-11-13T21:41:23.255Z,19.63
2022-11-13T21:44:04.760Z,17.17
2022-11-13T21:46:39.750Z,16.83
2022-11-13T21:49:09.854Z,17.38
2022-11-13T21:51:38.221Z,17.55
2022-11-13T21:54:05.851Z,17.02
2022-11-13T21:56:36.507Z,17.80
2022-11-13T21:59:03.927Z,17.55
2022-11-13T22:01:37.846Z,17.63
2022-11-13T22:04:05.944Z,15.43
2022-11-13T22:06:36.292Z,16.27
2022-11-13T22:09:24.064Z,16.25
2022-11-13T22:11:51.532Z,16.00
2022-11-13T22:14:18.653Z,17.35
2022-11-13T22:16:46.921Z,17.08
2022-11-13T22:19:22.640Z,18.23
2022-11-13T22:21:54.102Z,16.95
2022-11-13T22:24:20.964Z,16.45
2022-11-13T22:26:50.737Z,17.40
2022-11-13T22:29:17.661Z,17.92
2022-11-13T22:31:45.081Z,18.40
2022-11-13T22:34:12.184Z,17.83
2022-11-13T22:36:39.145Z,18.23
2022-11-13T22:39:06.651Z,16.65
2022-11-13T22:41:36.018Z,18.33
2022-11-13T22:44:12.986Z,17.58
2022-11-13T22:46:39.944Z,17.10
2022-11-13T22:49:07.362Z,18.27
2022-11-13T22:51:38.344Z,17.40
2022-11-13T22:54:07.497Z,18.20
2022-11-13T22:56:35.351Z,16.48
2022-11-13T22:59:04.650Z,16.75
2022-11-13T23:01:34.038Z,19.10
2022-11-13T23:04:03.757Z,18.33
2022-11-13T23:06:33.461Z,16.55
2022-11-13T23:09:01.173Z,17.23
2022-11-13T23:11:29.088Z,16.92
2022-11-13T23:13:58.760Z,15.70
2022-11-13T23:16:27.121Z,17.38
2022-11-13T23:18:56.128Z,16.80
2022-11-13T23:21:25.179Z,17.15
2022-11-13T23:23:52.656Z,17.42
2022-11-13T23:26:19.847Z,16.05
2022-11-13T23:28:46.697Z,16.25
2022-11-13T23:31:13.785Z,15.65
2022-11-13T23:33:40.823Z,15.75
2022-11-13T23:36:09.714Z,15.10
2022-11-13T23:38:36.937Z,15.90
2022-11-13T23:41:04.234Z,16.08
2022-11-13T23:43:54.400Z,15.77
2022-11-13T23:46:18.416Z,15.18
2022-11-13T23:48:45.352Z,15.23
2022-11-13T23:51:12.255Z,17.85
2022-11-13T23:53:39.091Z,15.20
2022-11-13T23:56:06.591Z,17.42
2022-11-13T23:58:33.693Z,14.95
